createdAt,value
2023-03-23T15:58:16.196Z,18.70
2023-03-23T16:00:45.745Z,18.70
2023-03-23T16:03:22.181Z,18.80
2023-03-23T16:05:52.459Z,18.70
2023-03-23T16:08:20.095Z,18.70
2023-03-23T16:10:47.954Z,18.60
2023-03-23T16:13:15.523Z,18.60
2023-03-23T16:15:43.234Z,18.40
2023-03-23T16:18:22.572Z,17.80
2023-03-23T16:20:50.483Z,18.20
2023-03-23T16:23:21.271Z,18.10
2023-03-23T16:25:49.170Z,18.00
2023-03-23T16:28:17.458Z,17.90
2023-03-23T16:30:45.599Z,17.70
2023-03-23T16:33:13.324Z,17.70
2023-03-23T16:35:41.173Z,17.70
2023-03-23T16:38:12.506Z,17.60
2023-03-23T16:40:39.838Z,17.50
2023-03-23T16:43:09.015Z,17.50
2023-03-23T16:45:44.164Z,17.30
2023-03-23T16:48:13.925Z,17.30
2023-03-23T16:50:42.536Z,16.40
2023-03-23T16:53:11.158Z,17.00
2023-03-23T16:55:40.871Z,16.50
2023-03-23T16:58:16.935Z,16.90
2023-03-23T17:00:48.475Z,16.80
2023-03-23T17:03:16.749Z,16.60
2023-03-23T17:05:45.298Z,16.50
2023-03-23T17:08:13.102Z,16.50
2023-03-23T17:10:41.976Z,17.50
2023-03-23T17:13:09.753Z,16.30
2023-03-23T17:15:44.502Z,16.20
2023-03-23T17:18:14.262Z,16.10
2023-03-23T17:20:41.895Z,16.20
2023-03-23T17:23:09.624Z,16.10
2023-03-23T17:25:37.496Z,16.00
2023-03-23T17:28:07.041Z,16.00
2023-03-23T17:30:36.455Z,15.90
2023-03-23T17:33:04.317Z,15.80
2023-03-23T17:35:31.965Z,15.80
2023-03-23T17:37:59.711Z,15.70
2023-03-23T17:40:27.460Z,15.60
2023-03-23T17:42:55.337Z,15.50
2023-03-23T17:45:23.472Z,15.50
2023-03-23T17:47:51.284Z,15.00
2023-03-23T17:50:19.296Z,14.50
2023-03-23T17:52:47.367Z,15.30
2023-03-23T17:55:15.939Z,15.30
2023-03-23T17:57:44.980Z,14.80
2023-03-23T18:00:16.621Z,15.10
2023-03-23T18:02:47.028Z,15.00
2023-03-23T18:05:41.562Z,15.00
2023-03-23T18:08:10.913Z,14.90
2023-03-23T18:10:40.449Z,14.90
2023-03-23T18:13:09.615Z,14.80
2023-03-23T18:15:37.947Z,14.70
2023-03-23T18:18:07.318Z,14.70
2023-03-23T18:20:35.082Z,14.60
2023-03-23T18:23:05.168Z,14.60
2023-03-23T18:25:33.788Z,14.50
2023-03-23T18:28:04.723Z,14.50
2023-03-23T18:30:37.179Z,14.40
2023-03-23T18:33:05.701Z,14.40
2023-03-23T18:35:34.459Z,14.40
2023-03-23T18:38:03.412Z,14.30
2023-03-23T18:40:32.362Z,14.20
2023-03-23T18:43:01.181Z,14.30
2023-03-23T18:45:29.875Z,14.20
2023-03-23T18:47:58.305Z,14.10
2023-03-23T18:50:29.126Z,14.10
2023-03-23T18:52:57.830Z,14.10
2023-03-23T18:55:27.688Z,14.30
2023-03-23T18:57:58.206Z,14.00
2023-03-23T19:00:30.503Z,13.90
2023-03-23T19:02:58.872Z,13.80
2023-03-23T19:05:28.655Z,13.80
2023-03-23T19:07:57.148Z,12.40
2023-03-23T19:10:25.933Z,13.60
2023-03-23T19:12:54.840Z,13.70
2023-03-23T19:15:27.825Z,13.60
2023-03-23T19:17:58.461Z,13.60
2023-03-23T19:23:01.819Z,13.60
2023-03-23T19:25:33.811Z,13.90
2023-03-23T19:29:03.344Z,13.50
2023-03-23T19:30:59.531Z,13.40
2023-03-23T19:33:28.201Z,13.50
2023-03-23T19:38:37.405Z,13.40
2023-03-23T19:41:06.687Z,13.40
2023-03-23T19:43:36.444Z,13.40
2023-03-23T19:46:11.659Z,13.30
2023-03-23T19:48:41.692Z,13.40
2023-03-23T19:51:12.701Z,13.40
2023-03-23T19:53:41.733Z,13.40
2023-03-23T19:56:19.334Z,13.40
2023-03-23T19:58:49.040Z,12.30
2023-03-23T20:01:18.713Z,13.30
2023-03-23T20:03:48.912Z,13.30
2023-03-23T20:06:19.436Z,12.50
2023-03-23T20:08:53.513Z,13.20
2023-03-23T20:11:21.640Z,13.20
2023-03-23T20:13:51.644Z,13.10
2023-03-23T20:16:21.837Z,13.00
2023-03-23T20:18:55.840Z,13.10
2023-03-23T20:21:25.846Z,13.10
2023-03-23T20:24:15.550Z,13.10
2023-03-23T20:26:45.010Z,13.00
2023-03-23T20:29:15.356Z,12.90
2023-03-23T20:31:47.177Z,12.90
2023-03-23T20:34:29.512Z,13.10
2023-03-23T20:36:59.797Z,12.80
2023-03-23T20:39:31.464Z,12.80
2023-03-23T20:42:03.736Z,12.80
2023-03-23T20:44:37.758Z,12.60
2023-03-23T20:47:10.193Z,12.80
2023-03-23T20:49:39.408Z,12.70
2023-03-23T20:52:27.396Z,12.70
2023-03-23T20:54:56.824Z,12.70
2023-03-23T20:57:26.853Z,12.70
2023-03-23T20:59:56.357Z,12.50
2023-03-23T21:02:29.041Z,12.50
2023-03-23T21:05:19.887Z,12.60
2023-03-23T21:07:51.216Z,12.70
2023-03-23T21:10:19.667Z,12.40
2023-03-23T21:12:51.485Z,12.30
2023-03-23T21:15:21.258Z,12.30
2023-03-23T21:17:53.017Z,12.30
2023-03-23T21:20:21.046Z,12.30
2023-03-23T21:22:48.988Z,12.20
2023-03-23T21:25:17.537Z,12.40
2023-03-23T21:27:44.919Z,12.10
2023-03-23T21:30:12.753Z,12.20
2023-03-23T21:32:40.946Z,12.00
2023-03-23T21:35:09.341Z,12.60
2023-03-23T21:37:42.741Z,11.90
2023-03-23T21:40:14.804Z,11.90
2023-03-23T21:42:43.349Z,11.90
2023-03-23T21:45:13.485Z,11.90
2023-03-23T21:47:43.899Z,11.80
2023-03-23T21:50:12.628Z,11.60
2023-03-23T21:52:43.497Z,11.70
2023-03-23T21:55:12.690Z,11.60
2023-03-23T21:57:43.711Z,11.70
2023-03-23T22:00:15.103Z,11.50
2023-03-23T22:02:42.640Z,11.50
2023-03-23T22:05:10.857Z,11.60
2023-03-23T22:07:39.297Z,11.70
2023-03-23T22:10:09.009Z,11.40
2023-03-23T22:12:37.641Z,11.50
2023-03-23T22:15:06.717Z,11.50
2023-03-23T22:17:37.987Z,11.40
2023-03-23T22:20:13.668Z,11.50
2023-03-23T22:22:41.282Z,11.40
2023-03-23T22:25:09.073Z,10.90
2023-03-23T22:27:36.522Z,11.30
2023-03-23T22:30:04.744Z,11.20
2023-03-23T22:32:34.791Z,11.30
2023-03-23T22:35:02.389Z,11.70
2023-03-23T22:37:32.208Z,11.20
2023-03-23T22:40:02.016Z,11.20
2023-03-23T22:42:29.723Z,11.10
2023-03-23T22:44:57.184Z,10.70
2023-03-23T22:47:24.519Z,11.00
2023-03-23T22:49:52.013Z,10.90
2023-03-23T22:52:19.461Z,11.00
2023-03-23T22:54:48.209Z,11.00
2023-03-23T22:57:15.643Z,10.80
2023-03-23T22:59:43.340Z,10.70
2023-03-23T23:02:10.615Z,10.90
2023-03-23T23:04:38.056Z,10.80
2023-03-23T23:07:13.523Z,10.90
2023-03-23T23:09:46.903Z,10.90
2023-03-23T23:12:15.077Z,10.40
2023-03-23T23:14:45.636Z,11.10
2023-03-23T23:17:12.990Z,10.70
2023-03-23T23:19:40.494Z,10.90
2023-03-23T23:22:18.416Z,10.70
2023-03-23T23:24:46.887Z,10.80
2023-03-23T23:27:14.702Z,10.80
2023-03-23T23:29:42.208Z,10.80
2023-03-23T23:32:09.541Z,10.60
2023-03-23T23:34:36.959Z,10.90
2023-03-23T23:37:04.276Z,10.10
2023-03-23T23:39:31.674Z,10.70
2023-03-23T23:41:59.038Z,10.70
2023-03-23T23:44:26.497Z,10.50
2023-03-23T23:46:56.324Z,10.50
2023-03-23T23:49:28.894Z,10.60
2023-03-23T23:51:56.737Z,10.60
2023-03-23T23:54:30.403Z,10.40
2023-03-23T23:56:59.681Z,10.50
2023-03-23T23:59:30.755Z,10.50
